sensor_id;sensor_type;location;lat;lon;timestamp;P1;durP1;ratioP1;P2;durP2;ratioP2
21480;SDS011;10902;48.158;8.634;2023-05-07T00:02:21;8.05;;;5.90;;
21480;SDS011;10902;48.158;8.634;2023-05-07T00:04:47;8.73;;;5.53;;
21480;SDS011;10902;48.158;8.634;2023-05-07T00:07:13;6.95;;;5.10;;
21480;SDS011;10902;48.158;8.634;2023-05-07T00:09:39;7.90;;;5.68;;
21480;SDS011;10902;48.158;8.634;2023-05-07T00:12:05;8.85;;;6.20;;
21480;SDS011;10902;48.158;8.634;2023-05-07T00:14:31;7.40;;;5.85;;
21480;SDS011;10902;48.158;8.634;2023-05-07T00:16:56;10.43;;;6.63;;
21480;SDS011;10902;48.158;8.634;2023-05-07T00:19:22;8.20;;;5.47;;
21480;SDS011;10902;48.158;8.634;2023-05-07T00:21:47;10.70;;;5.80;;
21480;SDS011;10902;48.158;8.634;2023-05-07T00:24:13;9.23;;;6.30;;
21480;SDS011;10902;48.158;8.634;2023-05-07T00:26:38;9.52;;;6.88;;
21480;SDS011;10902;48.158;8.634;2023-05-07T00:29:04;9.13;;;6.80;;
21480;SDS011;10902;48.158;8.634;2023-05-07T00:31:30;9.35;;;6.68;;
21480;SDS011;10902;48.158;8.634;2023-05-07T00:33:55;8.88;;;6.82;;
21480;SDS011;10902;48.158;8.634;2023-05-07T00:36:21;10.02;;;6.68;;
21480;SDS011;10902;48.158;8.634;2023-05-07T00:38:46;9.75;;;6.45;;
21480;SDS011;10902;48.158;8.634;2023-05-07T00:41:12;9.13;;;6.63;;
21480;SDS011;10902;48.158;8.634;2023-05-07T00:43:38;10.43;;;6.65;;
21480;SDS011;10902;48.158;8.634;2023-05-07T00:46:03;9.27;;;6.80;;
21480;SDS011;10902;48.158;8.634;2023-05-07T00:48:30;11.98;;;7.00;;
21480;SDS011;10902;48.158;8.634;2023-05-07T00:50:56;9.60;;;6.88;;
21480;SDS011;10902;48.158;8.634;2023-05-07T00:53:22;12.43;;;7.70;;
21480;SDS011;10902;48.158;8.634;2023-05-07T00:55:48;11.35;;;7.55;;
21480;SDS011;10902;48.158;8.634;2023-05-07T00:58:13;11.15;;;8.00;;
21480;SDS011;10902;48.158;8.634;2023-05-07T01:00:39;10.50;;;8.65;;
21480;SDS011;10902;48.158;8.634;2023-05-07T01:03:05;10.95;;;8.52;;
21480;SDS011;10902;48.158;8.634;2023-05-07T01:05:31;14.73;;;9.95;;
21480;SDS011;10902;48.158;8.634;2023-05-07T01:07:56;12.73;;;8.00;;
21480;SDS011;10902;48.158;8.634;2023-05-07T01:10:23;9.05;;;7.32;;
21480;SDS011;10902;48.158;8.634;2023-05-07T01:12:49;11.35;;;7.80;;
21480;SDS011;10902;48.158;8.634;2023-05-07T01:15:16;9.73;;;8.00;;
21480;SDS011;10902;48.158;8.634;2023-05-07T01:17:42;9.35;;;7.65;;
21480;SDS011;10902;48.158;8.634;2023-05-07T01:20:09;8.90;;;6.80;;
21480;SDS011;10902;48.158;8.634;2023-05-07T01:22:36;11.13;;;8.13;;
21480;SDS011;10902;48.158;8.634;2023-05-07T01:25:05;10.55;;;7.93;;
21480;SDS011;10902;48.158;8.634;2023-05-07T01:27:32;10.60;;;7.25;;
21480;SDS011;10902;48.158;8.634;2023-05-07T01:29:59;11.48;;;7.43;;
21480;SDS011;10902;48.158;8.634;2023-05-07T01:35:05;15.48;;;8.30;;
21480;SDS011;10902;48.158;8.634;2023-05-07T01:37:35;9.52;;;7.22;;
21480;SDS011;10902;48.158;8.634;2023-05-07T01:40:02;12.95;;;8.02;;
21480;SDS011;10902;48.158;8.634;2023-05-07T01:42:29;10.50;;;7.50;;
21480;SDS011;10902;48.158;8.634;2023-05-07T01:44:55;12.80;;;8.40;;
21480;SDS011;10902;48.158;8.634;2023-05-07T01:47:21;12.88;;;8.82;;
21480;SDS011;10902;48.158;8.634;2023-05-07T01:49:48;11.55;;;8.18;;
21480;SDS011;10902;48.158;8.634;2023-05-07T01:52:13;10.63;;;8.38;;
21480;SDS011;10902;48.158;8.634;2023-05-07T01:54:39;13.82;;;7.95;;
21480;SDS011;10902;48.158;8.634;2023-05-07T01:57:05;12.95;;;7.75;;
21480;SDS011;10902;48.158;8.634;2023-05-07T01:59:30;11.95;;;7.90;;
21480;SDS011;10902;48.158;8.634;2023-05-07T02:01:56;10.38;;;7.47;;
21480;SDS011;10902;48.158;8.634;2023-05-07T02:04:21;9.45;;;6.82;;
21480;SDS011;10902;48.158;8.634;2023-05-07T02:06:47;13.43;;;8.77;;
21480;SDS011;10902;48.158;8.634;2023-05-07T02:09:13;13.82;;;9.23;;
21480;SDS011;10902;48.158;8.634;2023-05-07T02:11:39;13.80;;;9.43;;
21480;SDS011;10902;48.158;8.634;2023-05-07T02:14:05;13.50;;;9.98;;
21480;SDS011;10902;48.158;8.634;2023-05-07T02:16:31;13.73;;;8.85;;
21480;SDS011;10902;48.158;8.634;2023-05-07T02:18:56;14.93;;;9.52;;
21480;SDS011;10902;48.158;8.634;2023-05-07T02:21:23;13.73;;;9.48;;
21480;SDS011;10902;48.158;8.634;2023-05-07T02:23:48;14.65;;;9.82;;
21480;SDS011;10902;48.158;8.634;2023-05-07T02:26:14;14.85;;;9.63;;
21480;SDS011;10902;48.158;8.634;2023-05-07T02:28:39;11.90;;;9.55;;
21480;SDS011;10902;48.158;8.634;2023-05-07T02:31:05;12.13;;;9.93;;
21480;SDS011;10902;48.158;8.634;2023-05-07T02:33:31;11.13;;;9.13;;
21480;SDS011;10902;48.158;8.634;2023-05-07T02:35:56;14.23;;;9.52;;
21480;SDS011;10902;48.158;8.634;2023-05-07T02:38:29;13.35;;;9.85;;
21480;SDS011;10902;48.158;8.634;2023-05-07T02:40:55;12.75;;;10.20;;
21480;SDS011;10902;48.158;8.634;2023-05-07T02:43:20;15.98;;;10.70;;
21480;SDS011;10902;48.158;8.634;2023-05-07T02:45:46;15.27;;;11.32;;
21480;SDS011;10902;48.158;8.634;2023-05-07T02:48:11;12.82;;;9.70;;
21480;SDS011;10902;48.158;8.634;2023-05-07T02:50:37;14.15;;;10.75;;
21480;SDS011;10902;48.158;8.634;2023-05-07T02:53:02;13.48;;;9.32;;
21480;SDS011;10902;48.158;8.634;2023-05-07T02:55:28;13.55;;;10.48;;
21480;SDS011;10902;48.158;8.634;2023-05-07T02:57:54;15.00;;;11.05;;
21480;SDS011;10902;48.158;8.634;2023-05-07T03:00:20;14.68;;;11.00;;
21480;SDS011;10902;48.158;8.634;2023-05-07T03:02:46;15.18;;;11.45;;
21480;SDS011;10902;48.158;8.634;2023-05-07T03:05:11;14.50;;;10.55;;
21480;SDS011;10902;48.158;8.634;2023-05-07T03:07:37;13.60;;;10.95;;
21480;SDS011;10902;48.158;8.634;2023-05-07T03:10:03;15.63;;;11.27;;
21480;SDS011;10902;48.158;8.634;2023-05-07T03:12:30;15.95;;;11.55;;
21480;SDS011;10902;48.158;8.634;2023-05-07T03:14:56;19.38;;;12.85;;
21480;SDS011;10902;48.158;8.634;2023-05-07T03:17:22;18.13;;;13.27;;
21480;SDS011;10902;48.158;8.634;2023-05-07T03:19:47;17.08;;;12.48;;
21480;SDS011;10902;48.158;8.634;2023-05-07T03:22:13;18.40;;;13.18;;
21480;SDS011;10902;48.158;8.634;2023-05-07T03:24:39;20.95;;;13.38;;
21480;SDS011;10902;48.158;8.634;2023-05-07T03:27:04;17.90;;;13.25;;
21480;SDS011;10902;48.158;8.634;2023-05-07T03:29:30;19.60;;;13.43;;
21480;SDS011;10902;48.158;8.634;2023-05-07T03:31:55;18.23;;;13.55;;
21480;SDS011;10902;48.158;8.634;2023-05-07T03:34:21;21.80;;;15.25;;
21480;SDS011;10902;48.158;8.634;2023-05-07T03:36:50;21.40;;;15.10;;
21480;SDS011;10902;48.158;8.634;2023-05-07T03:39:15;21.77;;;15.02;;
21480;SDS011;10902;48.158;8.634;2023-05-07T03:41:41;22.02;;;16.02;;
21480;SDS011;10902;48.158;8.634;2023-05-07T03:44:07;23.45;;;16.05;;
21480;SDS011;10902;48.158;8.634;2023-05-07T03:46:33;22.45;;;16.75;;
21480;SDS011;10902;48.158;8.634;2023-05-07T03:48:59;22.50;;;15.32;;
21480;SDS011;10902;48.158;8.634;2023-05-07T03:51:24;22.52;;;15.90;;
21480;SDS011;10902;48.158;8.634;2023-05-07T03:53:50;22.33;;;15.13;;
21480;SDS011;10902;48.158;8.634;2023-05-07T03:56:18;24.48;;;16.38;;
21480;SDS011;10902;48.158;8.634;2023-05-07T03:58:44;22.83;;;15.80;;
21480;SDS011;10902;48.158;8.634;2023-05-07T04:01:10;22.80;;;16.27;;
21480;SDS011;10902;48.158;8.634;2023-05-07T04:03:36;21.73;;;16.17;;
21480;SDS011;10902;48.158;8.634;2023-05-07T04:06:02;22.10;;;14.82;;
21480;SDS011;10902;48.158;8.634;2023-05-07T04:08:27;21.80;;;14.95;;
21480;SDS011;10902;48.158;8.634;2023-05-07T04:10:56;20.60;;;14.48;;
21480;SDS011;10902;48.158;8.634;2023-05-07T04:13:23;19.63;;;14.60;;
21480;SDS011;10902;48.158;8.634;2023-05-07T04:15:48;24.27;;;15.45;;
21480;SDS011;10902;48.158;8.634;2023-05-07T04:18:14;20.05;;;14.18;;
21480;SDS011;10902;48.158;8.634;2023-05-07T04:20:40;18.88;;;14.30;;
21480;SDS011;10902;48.158;8.634;2023-05-07T04:23:06;24.85;;;15.68;;
21480;SDS011;10902;48.158;8.634;2023-05-07T04:25:32;21.38;;;17.02;;
21480;SDS011;10902;48.158;8.634;2023-05-07T04:27:58;23.33;;;16.50;;
21480;SDS011;10902;48.158;8.634;2023-05-07T04:30:23;21.77;;;15.98;;
21480;SDS011;10902;48.158;8.634;2023-05-07T04:32:49;22.38;;;16.60;;
21480;SDS011;10902;48.158;8.634;2023-05-07T04:35:15;22.15;;;15.35;;
21480;SDS011;10902;48.158;8.634;2023-05-07T04:37:40;21.40;;;14.55;;
21480;SDS011;10902;48.158;8.634;2023-05-07T04:40:06;23.63;;;17.30;;
21480;SDS011;10902;48.158;8.634;2023-05-07T04:42:32;24.15;;;16.60;;
21480;SDS011;10902;48.158;8.634;2023-05-07T04:44:58;19.90;;;15.15;;
21480;SDS011;10902;48.158;8.634;2023-05-07T04:47:23;23.95;;;17.35;;
21480;SDS011;10902;48.158;8.634;2023-05-07T04:49:49;22.17;;;15.95;;
21480;SDS011;10902;48.158;8.634;2023-05-07T04:52:14;25.00;;;16.33;;
21480;SDS011;10902;48.158;8.634;2023-05-07T04:54:40;25.73;;;15.82;;
21480;SDS011;10902;48.158;8.634;2023-05-07T04:57:06;20.92;;;15.77;;
21480;SDS011;10902;48.158;8.634;2023-05-07T04:59:32;24.00;;;15.93;;
21480;SDS011;10902;48.158;8.634;2023-05-07T05:01:58;21.42;;;15.77;;
21480;SDS011;10902;48.158;8.634;2023-05-07T05:04:23;20.00;;;14.10;;
21480;SDS011;10902;48.158;8.634;2023-05-07T05:06:49;21.02;;;15.32;;
21480;SDS011;10902;48.158;8.634;2023-05-07T05:09:15;17.73;;;14.05;;
21480;SDS011;10902;48.158;8.634;2023-05-07T05:11:41;20.55;;;15.60;;
21480;SDS011;10902;48.158;8.634;2023-05-07T05:14:06;18.58;;;14.55;;
21480;SDS011;10902;48.158;8.634;2023-05-07T05:16:33;20.38;;;15.52;;
21480;SDS011;10902;48.158;8.634;2023-05-07T05:18:59;20.13;;;13.35;;
21480;SDS011;10902;48.158;8.634;2023-05-07T05:21:26;17.15;;;14.25;;
21480;SDS011;10902;48.158;8.634;2023-05-07T05:23:51;17.98;;;14.07;;
21480;SDS011;10902;48.158;8.634;2023-05-07T05:26:17;15.43;;;12.48;;
21480;SDS011;10902;48.158;8.634;2023-05-07T05:28:43;13.65;;;12.13;;
21480;SDS011;10902;48.158;8.634;2023-05-07T05:31:09;15.20;;;11.10;;
21480;SDS011;10902;48.158;8.634;2023-05-07T05:33:35;14.60;;;11.30;;
21480;SDS011;10902;48.158;8.634;2023-05-07T05:36:00;13.23;;;11.02;;
21480;SDS011;10902;48.158;8.634;2023-05-07T05:38:26;12.20;;;9.55;;
21480;SDS011;10902;48.158;8.634;2023-05-07T05:40:52;12.25;;;9.02;;
21480;SDS011;10902;48.158;8.634;2023-05-07T05:43:17;11.85;;;8.80;;
21480;SDS011;10902;48.158;8.634;2023-05-07T05:45:43;9.68;;;7.38;;
21480;SDS011;10902;48.158;8.634;2023-05-07T05:48:09;9.50;;;6.95;;
21480;SDS011;10902;48.158;8.634;2023-05-07T05:50:34;8.95;;;6.97;;
21480;SDS011;10902;48.158;8.634;2023-05-07T05:53:03;9.57;;;6.80;;
21480;SDS011;10902;48.158;8.634;2023-05-07T05:55:29;8.75;;;6.90;;
21480;SDS011;10902;48.158;8.634;2023-05-07T05:57:55;9.88;;;6.30;;
21480;SDS011;10902;48.158;8.634;2023-05-07T06:00:21;7.55;;;6.28;;
21480;SDS011;10902;48.158;8.634;2023-05-07T06:02:47;7.70;;;5.88;;
21480;SDS011;10902;48.158;8.634;2023-05-07T06:05:13;7.50;;;5.50;;
21480;SDS011;10902;48.158;8.634;2023-05-07T06:07:39;9.50;;;6.07;;
21480;SDS011;10902;48.158;8.634;2023-05-07T06:10:05;7.53;;;5.82;;
21480;SDS011;10902;48.158;8.634;2023-05-07T06:12:31;10.00;;;5.97;;
21480;SDS011;10902;48.158;8.634;2023-05-07T06:14:57;7.85;;;5.28;;
21480;SDS011;10902;48.158;8.634;2023-05-07T06:17:23;9.05;;;5.22;;
21480;SDS011;10902;48.158;8.634;2023-05-07T06:19:48;7.03;;;5.57;;
21480;SDS011;10902;48.158;8.634;2023-05-07T06:22:14;10.35;;;5.10;;
21480;SDS011;10902;48.158;8.634;2023-05-07T06:24:40;8.93;;;5.20;;
21480;SDS011;10902;48.158;8.634;2023-05-07T06:27:05;7.28;;;5.05;;
21480;SDS011;10902;48.158;8.634;2023-05-07T06:29:31;9.52;;;5.30;;
21480;SDS011;10902;48.158;8.634;2023-05-07T06:32:05;8.05;;;5.40;;
21480;SDS011;10902;48.158;8.634;2023-05-07T06:34:32;9.23;;;5.63;;
21480;SDS011;10902;48.158;8.634;2023-05-07T06:37:01;7.72;;;5.00;;
21480;SDS011;10902;48.158;8.634;2023-05-07T06:39:26;6.72;;;4.57;;
21480;SDS011;10902;48.158;8.634;2023-05-07T06:41:55;8.25;;;4.90;;
21480;SDS011;10902;48.158;8.634;2023-05-07T06:44:20;7.00;;;5.15;;
21480;SDS011;10902;48.158;8.634;2023-05-07T06:46:46;7.00;;;4.80;;
21480;SDS011;10902;48.158;8.634;2023-05-07T06:49:12;9.02;;;5.55;;
21480;SDS011;10902;48.158;8.634;2023-05-07T06:51:38;7.93;;;5.32;;
21480;SDS011;10902;48.158;8.634;2023-05-07T06:54:04;9.27;;;5.10;;
21480;SDS011;10902;48.158;8.634;2023-05-07T06:56:30;8.48;;;5.35;;
21480;SDS011;10902;48.158;8.634;2023-05-07T06:58:56;6.78;;;4.75;;
21480;SDS011;10902;48.158;8.634;2023-05-07T07:01:22;6.90;;;5.25;;
21480;SDS011;10902;48.158;8.634;2023-05-07T07:03:48;7.38;;;5.05;;
21480;SDS011;10902;48.158;8.634;2023-05-07T07:06:13;8.05;;;4.75;;
21480;SDS011;10902;48.158;8.634;2023-05-07T07:08:40;7.03;;;4.60;;
21480;SDS011;10902;48.158;8.634;2023-05-07T07:11:06;8.27;;;4.75;;
21480;SDS011;10902;48.158;8.634;2023-05-07T07:13:33;9.90;;;4.93;;
21480;SDS011;10902;48.158;8.634;2023-05-07T07:15:59;7.13;;;4.50;;
21480;SDS011;10902;48.158;8.634;2023-05-07T07:18:25;7.45;;;4.60;;
21480;SDS011;10902;48.158;8.634;2023-05-07T07:20:50;6.85;;;5.07;;
21480;SDS011;10902;48.158;8.634;2023-05-07T07:23:16;7.68;;;4.47;;
21480;SDS011;10902;48.158;8.634;2023-05-07T07:25:42;6.82;;;4.80;;
21480;SDS011;10902;48.158;8.634;2023-05-07T07:28:07;7.55;;;4.25;;
21480;SDS011;10902;48.158;8.634;2023-05-07T07:30:33;7.05;;;4.25;;
21480;SDS011;10902;48.158;8.634;2023-05-07T07:32:59;7.15;;;4.40;;
21480;SDS011;10902;48.158;8.634;2023-05-07T07:35:34;7.30;;;4.20;;
21480;SDS011;10902;48.158;8.634;2023-05-07T07:38:00;6.40;;;4.25;;
21480;SDS011;10902;48.158;8.634;2023-05-07T07:40:26;7.30;;;4.43;;
21480;SDS011;10902;48.158;8.634;2023-05-07T07:42:52;6.43;;;4.45;;
21480;SDS011;10902;48.158;8.634;2023-05-07T07:45:18;6.72;;;4.20;;
21480;SDS011;10902;48.158;8.634;2023-05-07T07:47:44;5.82;;;3.50;;
21480;SDS011;10902;48.158;8.634;2023-05-07T07:50:10;5.88;;;4.00;;
21480;SDS011;10902;48.158;8.634;2023-05-07T07:52:35;5.30;;;3.83;;
21480;SDS011;10902;48.158;8.634;2023-05-07T07:55:01;7.15;;;3.90;;
21480;SDS011;10902;48.158;8.634;2023-05-07T07:57:27;5.93;;;3.75;;
21480;SDS011;10902;48.158;8.634;2023-05-07T07:59:52;6.07;;;3.88;;
21480;SDS011;10902;48.158;8.634;2023-05-07T08:02:18;5.68;;;3.58;;
21480;SDS011;10902;48.158;8.634;2023-05-07T08:04:44;5.18;;;3.10;;
21480;SDS011;10902;48.158;8.634;2023-05-07T08:07:10;6.93;;;2.95;;
21480;SDS011;10902;48.158;8.634;2023-05-07T08:09:36;5.57;;;2.97;;
21480;SDS011;10902;48.158;8.634;2023-05-07T08:12:03;5.03;;;2.92;;
21480;SDS011;10902;48.158;8.634;2023-05-07T08:14:29;5.90;;;3.25;;
21480;SDS011;10902;48.158;8.634;2023-05-07T08:16:55;6.93;;;3.17;;
21480;SDS011;10902;48.158;8.634;2023-05-07T08:19:20;5.80;;;2.88;;
21480;SDS011;10902;48.158;8.634;2023-05-07T08:21:47;5.18;;;2.60;;
21480;SDS011;10902;48.158;8.634;2023-05-07T08:24:13;5.43;;;2.80;;
21480;SDS011;10902;48.158;8.634;2023-05-07T08:26:45;4.15;;;2.20;;
21480;SDS011;10902;48.158;8.634;2023-05-07T08:29:11;5.18;;;2.50;;
21480;SDS011;10902;48.158;8.634;2023-05-07T08:31:36;4.00;;;1.90;;
21480;SDS011;10902;48.158;8.634;2023-05-07T08:34:04;4.10;;;2.20;;
21480;SDS011;10902;48.158;8.634;2023-05-07T08:36:30;4.95;;;2.40;;
21480;SDS011;10902;48.158;8.634;2023-05-07T08:38:56;4.13;;;2.30;;
21480;SDS011;10902;48.158;8.634;2023-05-07T08:41:21;4.80;;;1.95;;
21480;SDS011;10902;48.158;8.634;2023-05-07T08:43:48;4.47;;;2.15;;
21480;SDS011;10902;48.158;8.634;2023-05-07T08:46:19;5.60;;;2.20;;
21480;SDS011;10902;48.158;8.634;2023-05-07T08:48:48;4.90;;;1.85;;
21480;SDS011;10902;48.158;8.634;2023-05-07T08:51:15;3.50;;;1.80;;
21480;SDS011;10902;48.158;8.634;2023-05-07T08:53:43;10.35;;;2.17;;
21480;SDS011;10902;48.158;8.634;2023-05-07T08:56:09;5.03;;;2.10;;
21480;SDS011;10902;48.158;8.634;2023-05-07T08:58:35;4.13;;;1.77;;
21480;SDS011;10902;48.158;8.634;2023-05-07T09:01:02;3.67;;;1.80;;
21480;SDS011;10902;48.158;8.634;2023-05-07T09:03:31;5.95;;;1.92;;
21480;SDS011;10902;48.158;8.634;2023-05-07T09:05:57;4.38;;;1.77;;
21480;SDS011;10902;48.158;8.634;2023-05-07T09:08:26;5.38;;;1.85;;
21480;SDS011;10902;48.158;8.634;2023-05-07T09:10:52;4.40;;;1.70;;
21480;SDS011;10902;48.158;8.634;2023-05-07T09:13:18;3.88;;;1.67;;
21480;SDS011;10902;48.158;8.634;2023-05-07T09:15:45;3.40;;;1.50;;
21480;SDS011;10902;48.158;8.634;2023-05-07T09:18:11;4.50;;;1.85;;
21480;SDS011;10902;48.158;8.634;2023-05-07T09:20:38;3.63;;;1.60;;
21480;SDS011;10902;48.158;8.634;2023-05-07T09:23:04;3.78;;;1.80;;
21480;SDS011;10902;48.158;8.634;2023-05-07T09:25:32;6.65;;;2.08;;
21480;SDS011;10902;48.158;8.634;2023-05-07T09:27:59;4.30;;;1.80;;
21480;SDS011;10902;48.158;8.634;2023-05-07T09:30:28;4.03;;;1.40;;
21480;SDS011;10902;48.158;8.634;2023-05-07T09:32:58;4.70;;;1.85;;
21480;SDS011;10902;48.158;8.634;2023-05-07T09:35:26;5.30;;;1.70;;
21480;SDS011;10902;48.158;8.634;2023-05-07T09:37:55;3.85;;;1.73;;
21480;SDS011;10902;48.158;8.634;2023-05-07T09:40:24;5.82;;;1.60;;
21480;SDS011;10902;48.158;8.634;2023-05-07T09:42:51;5.13;;;1.60;;
21480;SDS011;10902;48.158;8.634;2023-05-07T09:45:26;4.10;;;1.88;;
21480;SDS011;10902;48.158;8.634;2023-05-07T09:47:53;3.72;;;1.90;;
21480;SDS011;10902;48.158;8.634;2023-05-07T09:50:30;4.43;;;1.70;;
21480;SDS011;10902;48.158;8.634;2023-05-07T09:53:01;4.63;;;1.58;;
21480;SDS011;10902;48.158;8.634;2023-05-07T09:55:28;5.22;;;2.10;;
21480;SDS011;10902;48.158;8.634;2023-05-07T09:57:55;5.47;;;1.98;;
21480;SDS011;10902;48.158;8.634;2023-05-07T10:00:22;3.67;;;1.58;;
21480;SDS011;10902;48.158;8.634;2023-05-07T10:02:48;3.92;;;1.65;;
21480;SDS011;10902;48.158;8.634;2023-05-07T10:05:16;4.00;;;2.08;;
21480;SDS011;10902;48.158;8.634;2023-05-07T10:07:43;3.67;;;1.77;;
21480;SDS011;10902;48.158;8.634;2023-05-07T10:10:09;4.10;;;1.70;;
21480;SDS011;10902;48.158;8.634;2023-05-07T10:12:36;4.53;;;1.70;;
21480;SDS011;10902;48.158;8.634;2023-05-07T10:15:07;3.38;;;1.60;;
21480;SDS011;10902;48.158;8.634;2023-05-07T10:17:35;4.45;;;1.80;;
21480;SDS011;10902;48.158;8.634;2023-05-07T10:20:01;4.90;;;1.67;;
21480;SDS011;10902;48.158;8.634;2023-05-07T10:22:28;5.43;;;1.90;;
21480;SDS011;10902;48.158;8.634;2023-05-07T10:24:57;3.83;;;1.63;;
21480;SDS011;10902;48.158;8.634;2023-05-07T10:27:27;3.88;;;1.70;;
21480;SDS011;10902;48.158;8.634;2023-05-07T10:35:06;3.78;;;1.52;;
21480;SDS011;10902;48.158;8.634;2023-05-07T10:37:39;5.75;;;2.05;;
21480;SDS011;10902;48.158;8.634;2023-05-07T10:40:05;4.82;;;1.67;;
21480;SDS011;10902;48.158;8.634;2023-05-07T10:42:32;4.03;;;1.60;;
21480;SDS011;10902;48.158;8.634;2023-05-07T10:44:57;5.63;;;1.98;;
21480;SDS011;10902;48.158;8.634;2023-05-07T10:47:36;4.22;;;1.80;;
21480;SDS011;10902;48.158;8.634;2023-05-07T10:50:21;4.32;;;1.83;;
21480;SDS011;10902;48.158;8.634;2023-05-07T10:53:04;3.90;;;2.00;;
21480;SDS011;10902;48.158;8.634;2023-05-07T10:55:42;4.90;;;1.85;;
21480;SDS011;10902;48.158;8.634;2023-05-07T11:00:46;6.88;;;2.20;;
21480;SDS011;10902;48.158;8.634;2023-05-07T11:03:16;5.00;;;2.03;;
21480;SDS011;10902;48.158;8.634;2023-05-07T11:05:41;4.28;;;1.80;;
21480;SDS011;10902;48.158;8.634;2023-05-07T11:08:08;4.20;;;1.75;;
21480;SDS011;10902;48.158;8.634;2023-05-07T11:10:47;4.05;;;1.83;;
21480;SDS011;10902;48.158;8.634;2023-05-07T11:13:12;3.85;;;1.80;;
21480;SDS011;10902;48.158;8.634;2023-05-07T11:15:40;3.33;;;1.75;;
21480;SDS011;10902;48.158;8.634;2023-05-07T11:18:08;4.22;;;1.83;;
21480;SDS011;10902;48.158;8.634;2023-05-07T11:28:27;7.18;;;3.00;;
21480;SDS011;10902;48.158;8.634;2023-05-07T11:30:53;5.43;;;3.35;;
21480;SDS011;10902;48.158;8.634;2023-05-07T11:33:19;8.95;;;3.88;;
21480;SDS011;10902;48.158;8.634;2023-05-07T11:35:45;5.38;;;3.42;;
21480;SDS011;10902;48.158;8.634;2023-05-07T11:38:12;6.70;;;4.00;;
21480;SDS011;10902;48.158;8.634;2023-05-07T11:40:51;6.13;;;3.65;;
21480;SDS011;10902;48.158;8.634;2023-05-07T11:43:18;5.47;;;3.10;;
21480;SDS011;10902;48.158;8.634;2023-05-07T11:45:47;6.70;;;3.63;;
21480;SDS011;10902;48.158;8.634;2023-05-07T11:48:14;6.03;;;3.28;;
21480;SDS011;10902;48.158;8.634;2023-05-07T11:50:59;7.20;;;4.00;;
21480;SDS011;10902;48.158;8.634;2023-05-07T11:53:36;6.47;;;4.57;;
21480;SDS011;10902;48.158;8.634;2023-05-07T11:56:10;9.52;;;5.07;;
21480;SDS011;10902;48.158;8.634;2023-05-07T11:58:40;8.48;;;5.00;;
21480;SDS011;10902;48.158;8.634;2023-05-07T12:01:08;6.75;;;4.60;;
21480;SDS011;10902;48.158;8.634;2023-05-07T12:03:39;6.50;;;4.38;;
21480;SDS011;10902;48.158;8.634;2023-05-07T12:06:09;7.22;;;3.88;;
21480;SDS011;10902;48.158;8.634;2023-05-07T12:08:36;5.68;;;3.75;;
21480;SDS011;10902;48.158;8.634;2023-05-07T12:11:03;5.55;;;3.80;;
21480;SDS011;10902;48.158;8.634;2023-05-07T12:13:31;5.78;;;3.30;;
21480;SDS011;10902;48.158;8.634;2023-05-07T12:15:57;6.15;;;3.53;;
21480;SDS011;10902;48.158;8.634;2023-05-07T12:18:23;5.97;;;3.42;;
21480;SDS011;10902;48.158;8.634;2023-05-07T12:20:49;8.38;;;3.53;;
21480;SDS011;10902;48.158;8.634;2023-05-07T12:23:15;4.88;;;2.95;;
21480;SDS011;10902;48.158;8.634;2023-05-07T12:25:42;5.40;;;2.90;;
21480;SDS011;10902;48.158;8.634;2023-05-07T12:28:13;5.95;;;2.50;;
21480;SDS011;10902;48.158;8.634;2023-05-07T12:30:40;5.75;;;2.63;;
21480;SDS011;10902;48.158;8.634;2023-05-07T12:33:07;5.85;;;3.72;;
21480;SDS011;10902;48.158;8.634;2023-05-07T12:35:37;7.22;;;4.65;;
21480;SDS011;10902;48.158;8.634;2023-05-07T12:38:08;8.95;;;5.28;;
21480;SDS011;10902;48.158;8.634;2023-05-07T12:40:39;7.68;;;4.63;;
21480;SDS011;10902;48.158;8.634;2023-05-07T12:43:16;5.65;;;3.33;;
21480;SDS011;10902;48.158;8.634;2023-05-07T12:45:43;6.18;;;3.92;;
21480;SDS011;10902;48.158;8.634;2023-05-07T12:48:10;8.82;;;5.22;;
21480;SDS011;10902;48.158;8.634;2023-05-07T12:50:36;10.98;;;6.30;;
21480;SDS011;10902;48.158;8.634;2023-05-07T12:53:05;9.23;;;5.63;;
21480;SDS011;10902;48.158;8.634;2023-05-07T12:55:34;9.05;;;6.00;;
21480;SDS011;10902;48.158;8.634;2023-05-07T12:58:14;9.45;;;5.65;;
21480;SDS011;10902;48.158;8.634;2023-05-07T13:00:59;7.05;;;4.88;;
21480;SDS011;10902;48.158;8.634;2023-05-07T13:03:27;9.45;;;4.78;;
21480;SDS011;10902;48.158;8.634;2023-05-07T13:05:55;8.57;;;4.90;;
21480;SDS011;10902;48.158;8.634;2023-05-07T13:10:50;8.07;;;4.60;;
21480;SDS011;10902;48.158;8.634;2023-05-07T13:13:16;8.25;;;4.10;;
21480;SDS011;10902;48.158;8.634;2023-05-07T13:15:42;5.97;;;4.03;;
21480;SDS011;10902;48.158;8.634;2023-05-07T13:18:07;6.53;;;3.83;;
21480;SDS011;10902;48.158;8.634;2023-05-07T13:20:35;5.68;;;4.10;;
21480;SDS011;10902;48.158;8.634;2023-05-07T13:23:00;8.93;;;4.50;;
21480;SDS011;10902;48.158;8.634;2023-05-07T13:25:27;6.28;;;3.60;;
21480;SDS011;10902;48.158;8.634;2023-05-07T13:27:52;6.30;;;3.50;;
21480;SDS011;10902;48.158;8.634;2023-05-07T13:30:18;6.63;;;3.10;;
21480;SDS011;10902;48.158;8.634;2023-05-07T13:32:43;5.88;;;3.30;;
21480;SDS011;10902;48.158;8.634;2023-05-07T13:35:10;6.05;;;3.00;;
21480;SDS011;10902;48.158;8.634;2023-05-07T13:37:36;6.68;;;2.85;;
21480;SDS011;10902;48.158;8.634;2023-05-07T13:40:01;6.20;;;2.40;;
21480;SDS011;10902;48.158;8.634;2023-05-07T13:42:27;4.85;;;2.38;;
21480;SDS011;10902;48.158;8.634;2023-05-07T13:44:53;9.00;;;2.35;;
21480;SDS011;10902;48.158;8.634;2023-05-07T13:47:18;4.40;;;2.30;;
21480;SDS011;10902;48.158;8.634;2023-05-07T13:49:44;4.55;;;2.03;;
21480;SDS011;10902;48.158;8.634;2023-05-07T13:52:10;5.28;;;2.10;;
21480;SDS011;10902;48.158;8.634;2023-05-07T13:54:36;4.00;;;1.83;;
21480;SDS011;10902;48.158;8.634;2023-05-07T13:57:01;4.18;;;1.77;;
21480;SDS011;10902;48.158;8.634;2023-05-07T13:59:27;4.00;;;2.20;;
21480;SDS011;10902;48.158;8.634;2023-05-07T14:01:52;7.13;;;2.53;;
21480;SDS011;10902;48.158;8.634;2023-05-07T14:04:19;5.10;;;2.22;;
21480;SDS011;10902;48.158;8.634;2023-05-07T14:06:45;3.80;;;2.10;;
21480;SDS011;10902;48.158;8.634;2023-05-07T14:09:11;4.60;;;2.20;;
21480;SDS011;10902;48.158;8.634;2023-05-07T14:11:38;6.10;;;2.25;;
21480;SDS011;10902;48.158;8.634;2023-05-07T14:14:04;5.07;;;2.70;;
21480;SDS011;10902;48.158;8.634;2023-05-07T14:16:30;6.22;;;1.90;;
21480;SDS011;10902;48.158;8.634;2023-05-07T14:18:56;6.13;;;1.70;;
21480;SDS011;10902;48.158;8.634;2023-05-07T14:21:21;5.80;;;2.00;;
21480;SDS011;10902;48.158;8.634;2023-05-07T14:23:47;4.40;;;1.88;;
21480;SDS011;10902;48.158;8.634;2023-05-07T14:26:13;4.82;;;1.77;;
21480;SDS011;10902;48.158;8.634;2023-05-07T14:28:39;4.38;;;1.40;;
21480;SDS011;10902;48.158;8.634;2023-05-07T14:31:05;5.57;;;1.70;;
21480;SDS011;10902;48.158;8.634;2023-05-07T14:33:31;4.40;;;1.42;;
21480;SDS011;10902;48.158;8.634;2023-05-07T14:35:57;3.75;;;1.30;;
21480;SDS011;10902;48.158;8.634;2023-05-07T14:38:22;3.38;;;1.40;;
21480;SDS011;10902;48.158;8.634;2023-05-07T14:40:48;3.33;;;1.30;;
21480;SDS011;10902;48.158;8.634;2023-05-07T14:43:13;3.65;;;1.75;;
21480;SDS011;10902;48.158;8.634;2023-05-07T14:45:39;3.97;;;1.30;;
21480;SDS011;10902;48.158;8.634;2023-05-07T14:48:04;3.90;;;1.40;;
21480;SDS011;10902;48.158;8.634;2023-05-07T14:50:30;3.72;;;1.65;;
21480;SDS011;10902;48.158;8.634;2023-05-07T14:52:56;4.22;;;1.52;;
21480;SDS011;10902;48.158;8.634;2023-05-07T14:55:21;3.42;;;1.50;;
21480;SDS011;10902;48.158;8.634;2023-05-07T14:57:47;2.92;;;1.40;;
21480;SDS011;10902;48.158;8.634;2023-05-07T15:00:12;3.50;;;1.40;;